sensor_id;sensor_type;location;lat;lon;timestamp;P1;durP1;ratioP1;P2;durP2;ratioP2
22480;SDS011;11407;56.964;-2.212;2022-07-29T00:01:28;10.20;;;7.73;;
22480;SDS011;11407;56.964;-2.212;2022-07-29T00:03:54;9.20;;;8.00;;
22480;SDS011;11407;56.964;-2.212;2022-07-29T00:06:20;10.13;;;8.27;;
22480;SDS011;11407;56.964;-2.212;2022-07-29T00:08:46;9.47;;;7.70;;
22480;SDS011;11407;56.964;-2.212;2022-07-29T00:11:11;10.53;;;8.27;;
22480;SDS011;11407;56.964;-2.212;2022-07-29T00:13:37;8.50;;;7.57;;
22480;SDS011;11407;56.964;-2.212;2022-07-29T00:16:03;10.63;;;8.97;;
22480;SDS011;11407;56.964;-2.212;2022-07-29T00:18:28;9.93;;;8.53;;
22480;SDS011;11407;56.964;-2.212;2022-07-29T00:20:54;9.70;;;8.23;;
22480;SDS011;11407;56.964;-2.212;2022-07-29T00:23:19;8.93;;;8.03;;
22480;SDS011;11407;56.964;-2.212;2022-07-29T00:25:45;11.50;;;8.53;;
22480;SDS011;11407;56.964;-2.212;2022-07-29T00:28:10;10.80;;;8.23;;
22480;SDS011;11407;56.964;-2.212;2022-07-29T00:30:36;11.10;;;8.60;;
22480;SDS011;11407;56.964;-2.212;2022-07-29T00:33:01;11.57;;;8.63;;
22480;SDS011;11407;56.964;-2.212;2022-07-29T00:35:27;9.97;;;8.53;;
22480;SDS011;11407;56.964;-2.212;2022-07-29T00:38:15;10.70;;;8.13;;
22480;SDS011;11407;56.964;-2.212;2022-07-29T00:40:42;10.13;;;7.93;;
22480;SDS011;11407;56.964;-2.212;2022-07-29T00:43:08;11.57;;;8.10;;
22480;SDS011;11407;56.964;-2.212;2022-07-29T00:45:33;8.53;;;7.33;;
22480;SDS011;11407;56.964;-2.212;2022-07-29T00:47:59;9.10;;;7.83;;
22480;SDS011;11407;56.964;-2.212;2022-07-29T00:50:25;9.37;;;8.33;;
22480;SDS011;11407;56.964;-2.212;2022-07-29T00:52:51;9.93;;;7.80;;
22480;SDS011;11407;56.964;-2.212;2022-07-29T00:55:17;9.87;;;8.47;;
22480;SDS011;11407;56.964;-2.212;2022-07-29T00:57:44;12.73;;;8.67;;
22480;SDS011;11407;56.964;-2.212;2022-07-29T01:00:13;13.10;;;7.80;;
22480;SDS011;11407;56.964;-2.212;2022-07-29T01:02:43;11.17;;;8.73;;
22480;SDS011;11407;56.964;-2.212;2022-07-29T01:05:08;11.40;;;8.60;;
22480;SDS011;11407;56.964;-2.212;2022-07-29T01:07:36;8.90;;;7.93;;
22480;SDS011;11407;56.964;-2.212;2022-07-29T01:10:06;11.03;;;8.37;;
22480;SDS011;11407;56.964;-2.212;2022-07-29T01:12:33;10.10;;;7.87;;
22480;SDS011;11407;56.964;-2.212;2022-07-29T01:15:01;10.47;;;7.97;;
22480;SDS011;11407;56.964;-2.212;2022-07-29T01:17:44;9.20;;;7.77;;
22480;SDS011;11407;56.964;-2.212;2022-07-29T01:28:48;9.80;;;8.17;;
22480;SDS011;11407;56.964;-2.212;2022-07-29T01:34:05;10.43;;;8.00;;
22480;SDS011;11407;56.964;-2.212;2022-07-29T01:36:35;14.27;;;9.60;;
22480;SDS011;11407;56.964;-2.212;2022-07-29T01:39:12;11.77;;;8.83;;
22480;SDS011;11407;56.964;-2.212;2022-07-29T01:41:49;11.23;;;8.77;;
22480;SDS011;11407;56.964;-2.212;2022-07-29T01:44:41;10.00;;;8.17;;
22480;SDS011;11407;56.964;-2.212;2022-07-29T01:47:21;11.10;;;8.07;;
22480;SDS011;11407;56.964;-2.212;2022-07-29T01:49:52;10.70;;;8.20;;
22480;SDS011;11407;56.964;-2.212;2022-07-29T01:53:08;11.63;;;8.27;;
22480;SDS011;11407;56.964;-2.212;2022-07-29T01:55:22;9.47;;;7.87;;
22480;SDS011;11407;56.964;-2.212;2022-07-29T01:57:51;9.47;;;8.03;;
22480;SDS011;11407;56.964;-2.212;2022-07-29T02:00:17;10.80;;;8.27;;
22480;SDS011;11407;56.964;-2.212;2022-07-29T02:02:44;10.53;;;7.90;;
22480;SDS011;11407;56.964;-2.212;2022-07-29T02:05:13;12.97;;;8.20;;
22480;SDS011;11407;56.964;-2.212;2022-07-29T02:07:42;11.63;;;8.50;;
22480;SDS011;11407;56.964;-2.212;2022-07-29T02:10:09;10.73;;;8.70;;
22480;SDS011;11407;56.964;-2.212;2022-07-29T02:12:36;11.47;;;8.33;;
22480;SDS011;11407;56.964;-2.212;2022-07-29T02:15:04;11.73;;;8.47;;
22480;SDS011;11407;56.964;-2.212;2022-07-29T02:17:32;10.77;;;8.23;;
22480;SDS011;11407;56.964;-2.212;2022-07-29T02:20:04;11.03;;;8.47;;
22480;SDS011;11407;56.964;-2.212;2022-07-29T02:22:31;10.67;;;8.50;;
22480;SDS011;11407;56.964;-2.212;2022-07-29T02:25:00;12.50;;;8.13;;
22480;SDS011;11407;56.964;-2.212;2022-07-29T02:27:26;9.53;;;8.27;;
22480;SDS011;11407;56.964;-2.212;2022-07-29T02:29:53;8.67;;;7.20;;
22480;SDS011;11407;56.964;-2.212;2022-07-29T02:32:22;10.17;;;8.17;;
22480;SDS011;11407;56.964;-2.212;2022-07-29T02:34:49;9.53;;;7.57;;
22480;SDS011;11407;56.964;-2.212;2022-07-29T02:37:16;12.47;;;8.20;;
22480;SDS011;11407;56.964;-2.212;2022-07-29T02:39:43;11.30;;;8.57;;
22480;SDS011;11407;56.964;-2.212;2022-07-29T02:42:15;11.63;;;8.57;;
22480;SDS011;11407;56.964;-2.212;2022-07-29T02:44:42;9.07;;;7.90;;
22480;SDS011;11407;56.964;-2.212;2022-07-29T02:49:56;12.30;;;8.63;;
22480;SDS011;11407;56.964;-2.212;2022-07-29T02:55:04;11.90;;;8.83;;
22480;SDS011;11407;56.964;-2.212;2022-07-29T02:57:33;9.83;;;7.83;;
22480;SDS011;11407;56.964;-2.212;2022-07-29T03:00:07;10.87;;;8.33;;
22480;SDS011;11407;56.964;-2.212;2022-07-29T03:02:38;10.93;;;8.47;;
22480;SDS011;11407;56.964;-2.212;2022-07-29T03:05:08;11.30;;;8.77;;
22480;SDS011;11407;56.964;-2.212;2022-07-29T03:07:38;12.53;;;8.70;;
22480;SDS011;11407;56.964;-2.212;2022-07-29T03:10:06;11.80;;;8.87;;
22480;SDS011;11407;56.964;-2.212;2022-07-29T03:12:33;11.63;;;9.30;;
22480;SDS011;11407;56.964;-2.212;2022-07-29T03:15:00;13.50;;;9.47;;
22480;SDS011;11407;56.964;-2.212;2022-07-29T03:17:27;10.57;;;7.90;;
22480;SDS011;11407;56.964;-2.212;2022-07-29T03:19:52;11.07;;;8.97;;
22480;SDS011;11407;56.964;-2.212;2022-07-29T03:22:19;11.50;;;8.47;;
22480;SDS011;11407;56.964;-2.212;2022-07-29T03:24:44;11.50;;;8.20;;
22480;SDS011;11407;56.964;-2.212;2022-07-29T03:27:10;10.53;;;8.53;;
22480;SDS011;11407;56.964;-2.212;2022-07-29T03:29:35;10.80;;;8.53;;
22480;SDS011;11407;56.964;-2.212;2022-07-29T03:32:02;11.60;;;8.70;;
22480;SDS011;11407;56.964;-2.212;2022-07-29T03:34:29;11.43;;;8.23;;
22480;SDS011;11407;56.964;-2.212;2022-07-29T03:36:54;9.33;;;8.07;;
22480;SDS011;11407;56.964;-2.212;2022-07-29T03:39:24;9.77;;;7.47;;
22480;SDS011;11407;56.964;-2.212;2022-07-29T03:41:55;11.13;;;8.43;;
22480;SDS011;11407;56.964;-2.212;2022-07-29T03:44:23;10.83;;;8.60;;
22480;SDS011;11407;56.964;-2.212;2022-07-29T03:46:51;11.53;;;8.27;;
22480;SDS011;11407;56.964;-2.212;2022-07-29T03:49:19;12.67;;;8.50;;
22480;SDS011;11407;56.964;-2.212;2022-07-29T03:51:46;10.77;;;7.63;;
22480;SDS011;11407;56.964;-2.212;2022-07-29T03:54:12;12.43;;;8.13;;
22480;SDS011;11407;56.964;-2.212;2022-07-29T03:56:42;10.47;;;8.07;;
22480;SDS011;11407;56.964;-2.212;2022-07-29T03:59:13;9.23;;;7.73;;
22480;SDS011;11407;56.964;-2.212;2022-07-29T04:01:41;10.70;;;7.97;;
22480;SDS011;11407;56.964;-2.212;2022-07-29T04:04:07;8.87;;;7.97;;
22480;SDS011;11407;56.964;-2.212;2022-07-29T04:06:39;10.63;;;8.00;;
22480;SDS011;11407;56.964;-2.212;2022-07-29T04:09:08;10.47;;;7.53;;
22480;SDS011;11407;56.964;-2.212;2022-07-29T04:11:35;11.70;;;7.77;;
22480;SDS011;11407;56.964;-2.212;2022-07-29T04:14:01;9.77;;;7.50;;
22480;SDS011;11407;56.964;-2.212;2022-07-29T04:16:27;11.20;;;8.33;;
22480;SDS011;11407;56.964;-2.212;2022-07-29T04:18:52;9.40;;;8.00;;
22480;SDS011;11407;56.964;-2.212;2022-07-29T04:21:18;9.47;;;7.23;;
22480;SDS011;11407;56.964;-2.212;2022-07-29T04:23:43;9.77;;;7.07;;
22480;SDS011;11407;56.964;-2.212;2022-07-29T04:26:10;9.23;;;7.20;;
22480;SDS011;11407;56.964;-2.212;2022-07-29T04:28:36;11.20;;;7.57;;
22480;SDS011;11407;56.964;-2.212;2022-07-29T04:31:03;9.70;;;7.33;;
22480;SDS011;11407;56.964;-2.212;2022-07-29T04:33:28;8.43;;;7.53;;
22480;SDS011;11407;56.964;-2.212;2022-07-29T04:35:54;10.40;;;7.27;;
22480;SDS011;11407;56.964;-2.212;2022-07-29T04:38:19;9.27;;;7.57;;
22480;SDS011;11407;56.964;-2.212;2022-07-29T04:40:44;10.33;;;7.50;;
22480;SDS011;11407;56.964;-2.212;2022-07-29T04:43:10;13.47;;;7.60;;
22480;SDS011;11407;56.964;-2.212;2022-07-29T04:45:35;9.10;;;7.43;;
22480;SDS011;11407;56.964;-2.212;2022-07-29T04:48:01;10.53;;;7.53;;
22480;SDS011;11407;56.964;-2.212;2022-07-29T04:50:26;10.73;;;7.50;;
22480;SDS011;11407;56.964;-2.212;2022-07-29T04:52:52;12.53;;;7.33;;
22480;SDS011;11407;56.964;-2.212;2022-07-29T04:55:17;9.13;;;7.20;;
22480;SDS011;11407;56.964;-2.212;2022-07-29T04:57:43;10.53;;;7.07;;
22480;SDS011;11407;56.964;-2.212;2022-07-29T05:00:08;11.40;;;7.53;;
22480;SDS011;11407;56.964;-2.212;2022-07-29T05:02:34;7.47;;;6.67;;
22480;SDS011;11407;56.964;-2.212;2022-07-29T05:05:00;8.40;;;7.10;;
22480;SDS011;11407;56.964;-2.212;2022-07-29T05:07:25;9.53;;;7.17;;
22480;SDS011;11407;56.964;-2.212;2022-07-29T05:09:51;10.20;;;6.90;;
22480;SDS011;11407;56.964;-2.212;2022-07-29T05:12:17;11.17;;;6.80;;
22480;SDS011;11407;56.964;-2.212;2022-07-29T05:14:43;9.20;;;7.83;;
22480;SDS011;11407;56.964;-2.212;2022-07-29T05:17:08;10.17;;;7.53;;
22480;SDS011;11407;56.964;-2.212;2022-07-29T05:19:33;10.60;;;7.10;;
22480;SDS011;11407;56.964;-2.212;2022-07-29T05:21:59;8.73;;;7.30;;
22480;SDS011;11407;56.964;-2.212;2022-07-29T05:24:25;10.07;;;7.00;;
22480;SDS011;11407;56.964;-2.212;2022-07-29T05:26:50;11.37;;;7.20;;
22480;SDS011;11407;56.964;-2.212;2022-07-29T05:29:16;8.83;;;6.70;;
22480;SDS011;11407;56.964;-2.212;2022-07-29T05:31:41;7.80;;;6.67;;
22480;SDS011;11407;56.964;-2.212;2022-07-29T05:34:06;9.27;;;6.87;;
22480;SDS011;11407;56.964;-2.212;2022-07-29T05:36:32;8.10;;;6.93;;
22480;SDS011;11407;56.964;-2.212;2022-07-29T05:38:57;8.17;;;6.30;;
22480;SDS011;11407;56.964;-2.212;2022-07-29T05:41:23;11.13;;;6.43;;
22480;SDS011;11407;56.964;-2.212;2022-07-29T05:43:48;10.03;;;7.27;;
22480;SDS011;11407;56.964;-2.212;2022-07-29T05:46:14;8.40;;;6.23;;
22480;SDS011;11407;56.964;-2.212;2022-07-29T05:48:40;7.73;;;5.93;;
22480;SDS011;11407;56.964;-2.212;2022-07-29T05:51:05;9.10;;;6.50;;
22480;SDS011;11407;56.964;-2.212;2022-07-29T05:53:30;9.97;;;6.43;;
22480;SDS011;11407;56.964;-2.212;2022-07-29T05:55:56;9.87;;;6.70;;
22480;SDS011;11407;56.964;-2.212;2022-07-29T05:58:22;8.37;;;6.20;;
22480;SDS011;11407;56.964;-2.212;2022-07-29T06:00:47;11.83;;;6.90;;
22480;SDS011;11407;56.964;-2.212;2022-07-29T06:03:13;10.37;;;6.60;;
22480;SDS011;11407;56.964;-2.212;2022-07-29T06:05:38;8.47;;;6.13;;
22480;SDS011;11407;56.964;-2.212;2022-07-29T06:08:04;9.13;;;6.23;;
22480;SDS011;11407;56.964;-2.212;2022-07-29T06:10:32;7.47;;;5.90;;
22480;SDS011;11407;56.964;-2.212;2022-07-29T06:12:57;10.20;;;6.33;;
22480;SDS011;11407;56.964;-2.212;2022-07-29T06:15:23;7.17;;;5.80;;
22480;SDS011;11407;56.964;-2.212;2022-07-29T06:17:48;7.40;;;6.00;;
22480;SDS011;11407;56.964;-2.212;2022-07-29T06:20:14;7.80;;;5.87;;
22480;SDS011;11407;56.964;-2.212;2022-07-29T06:22:39;13.27;;;8.93;;
22480;SDS011;11407;56.964;-2.212;2022-07-29T06:25:05;8.93;;;6.60;;
22480;SDS011;11407;56.964;-2.212;2022-07-29T06:27:31;8.40;;;5.17;;
22480;SDS011;11407;56.964;-2.212;2022-07-29T06:29:56;9.03;;;4.73;;
22480;SDS011;11407;56.964;-2.212;2022-07-29T06:32:22;7.00;;;4.50;;
22480;SDS011;11407;56.964;-2.212;2022-07-29T06:34:47;4.13;;;3.70;;
22480;SDS011;11407;56.964;-2.212;2022-07-29T06:37:13;9.97;;;3.77;;
22480;SDS011;11407;56.964;-2.212;2022-07-29T06:39:39;4.83;;;3.50;;
22480;SDS011;11407;56.964;-2.212;2022-07-29T06:42:04;5.13;;;3.30;;
22480;SDS011;11407;56.964;-2.212;2022-07-29T06:44:31;7.60;;;3.63;;
22480;SDS011;11407;56.964;-2.212;2022-07-29T06:46:58;4.40;;;2.83;;
22480;SDS011;11407;56.964;-2.212;2022-07-29T06:49:24;4.70;;;3.20;;
22480;SDS011;11407;56.964;-2.212;2022-07-29T06:51:51;6.00;;;3.13;;
22480;SDS011;11407;56.964;-2.212;2022-07-29T06:54:17;7.23;;;3.27;;
22480;SDS011;11407;56.964;-2.212;2022-07-29T06:56:42;6.40;;;3.20;;
22480;SDS011;11407;56.964;-2.212;2022-07-29T06:59:09;12.27;;;4.47;;
22480;SDS011;11407;56.964;-2.212;2022-07-29T07:01:36;9.93;;;3.33;;
22480;SDS011;11407;56.964;-2.212;2022-07-29T07:04:02;6.50;;;3.10;;
22480;SDS011;11407;56.964;-2.212;2022-07-29T07:06:27;9.37;;;3.47;;
22480;SDS011;11407;56.964;-2.212;2022-07-29T07:08:53;6.63;;;3.10;;
22480;SDS011;11407;56.964;-2.212;2022-07-29T07:11:18;6.27;;;2.87;;
22480;SDS011;11407;56.964;-2.212;2022-07-29T07:13:44;6.20;;;3.30;;
22480;SDS011;11407;56.964;-2.212;2022-07-29T07:16:09;9.00;;;3.10;;
22480;SDS011;11407;56.964;-2.212;2022-07-29T07:18:35;7.03;;;3.50;;
22480;SDS011;11407;56.964;-2.212;2022-07-29T07:21:00;6.83;;;3.07;;
22480;SDS011;11407;56.964;-2.212;2022-07-29T07:23:26;5.87;;;3.20;;
22480;SDS011;11407;56.964;-2.212;2022-07-29T07:25:51;7.23;;;3.30;;
22480;SDS011;11407;56.964;-2.212;2022-07-29T07:28:17;10.07;;;3.77;;
22480;SDS011;11407;56.964;-2.212;2022-07-29T07:30:44;7.83;;;3.50;;
22480;SDS011;11407;56.964;-2.212;2022-07-29T07:33:10;6.70;;;3.57;;
22480;SDS011;11407;56.964;-2.212;2022-07-29T07:35:35;8.83;;;3.37;;
22480;SDS011;11407;56.964;-2.212;2022-07-29T07:38:01;6.43;;;3.47;;
22480;SDS011;11407;56.964;-2.212;2022-07-29T07:40:26;6.40;;;3.33;;
22480;SDS011;11407;56.964;-2.212;2022-07-29T07:42:52;8.00;;;3.40;;
22480;SDS011;11407;56.964;-2.212;2022-07-29T07:45:18;7.83;;;3.00;;
22480;SDS011;11407;56.964;-2.212;2022-07-29T07:47:43;10.37;;;3.33;;
22480;SDS011;11407;56.964;-2.212;2022-07-29T07:50:09;5.33;;;2.90;;
22480;SDS011;11407;56.964;-2.212;2022-07-29T07:52:45;3.63;;;2.40;;
22480;SDS011;11407;56.964;-2.212;2022-07-29T07:55:12;4.23;;;2.07;;
22480;SDS011;11407;56.964;-2.212;2022-07-29T07:57:37;4.80;;;2.30;;
22480;SDS011;11407;56.964;-2.212;2022-07-29T08:00:03;7.60;;;2.30;;
22480;SDS011;11407;56.964;-2.212;2022-07-29T08:02:29;5.37;;;2.30;;
22480;SDS011;11407;56.964;-2.212;2022-07-29T08:04:54;5.67;;;2.43;;
22480;SDS011;11407;56.964;-2.212;2022-07-29T08:07:20;5.47;;;2.00;;
22480;SDS011;11407;56.964;-2.212;2022-07-29T08:09:45;7.30;;;2.10;;
22480;SDS011;11407;56.964;-2.212;2022-07-29T08:12:11;2.30;;;1.90;;
22480;SDS011;11407;56.964;-2.212;2022-07-29T08:14:36;5.37;;;2.00;;
22480;SDS011;11407;56.964;-2.212;2022-07-29T08:17:02;4.40;;;1.90;;
22480;SDS011;11407;56.964;-2.212;2022-07-29T08:19:28;5.10;;;2.07;;
22480;SDS011;11407;56.964;-2.212;2022-07-29T08:21:53;3.00;;;1.40;;
22480;SDS011;11407;56.964;-2.212;2022-07-29T08:24:19;3.57;;;2.17;;
22480;SDS011;11407;56.964;-2.212;2022-07-29T08:27:04;5.77;;;1.97;;
22480;SDS011;11407;56.964;-2.212;2022-07-29T08:29:29;7.27;;;2.20;;
22480;SDS011;11407;56.964;-2.212;2022-07-29T08:31:55;4.63;;;2.20;;
22480;SDS011;11407;56.964;-2.212;2022-07-29T08:34:20;6.40;;;1.90;;
22480;SDS011;11407;56.964;-2.212;2022-07-29T08:36:46;4.93;;;2.03;;
22480;SDS011;11407;56.964;-2.212;2022-07-29T08:39:12;5.17;;;2.27;;
22480;SDS011;11407;56.964;-2.212;2022-07-29T08:41:37;5.17;;;2.13;;
22480;SDS011;11407;56.964;-2.212;2022-07-29T08:44:03;2.50;;;1.70;;
22480;SDS011;11407;56.964;-2.212;2022-07-29T08:46:29;4.90;;;1.83;;
22480;SDS011;11407;56.964;-2.212;2022-07-29T08:48:55;4.87;;;1.73;;
22480;SDS011;11407;56.964;-2.212;2022-07-29T08:51:20;12.23;;;2.10;;
22480;SDS011;11407;56.964;-2.212;2022-07-29T08:53:47;5.47;;;1.83;;
22480;SDS011;11407;56.964;-2.212;2022-07-29T08:56:15;5.10;;;2.00;;
22480;SDS011;11407;56.964;-2.212;2022-07-29T08:58:42;4.07;;;2.00;;
22480;SDS011;11407;56.964;-2.212;2022-07-29T09:01:07;3.50;;;1.83;;
22480;SDS011;11407;56.964;-2.212;2022-07-29T09:03:36;4.10;;;1.97;;
22480;SDS011;11407;56.964;-2.212;2022-07-29T09:06:04;5.70;;;2.00;;
22480;SDS011;11407;56.964;-2.212;2022-07-29T09:08:30;4.60;;;2.10;;
22480;SDS011;11407;56.964;-2.212;2022-07-29T09:10:56;4.27;;;1.67;;
22480;SDS011;11407;56.964;-2.212;2022-07-29T09:13:23;5.20;;;1.87;;
22480;SDS011;11407;56.964;-2.212;2022-07-29T09:15:49;5.93;;;2.10;;
22480;SDS011;11407;56.964;-2.212;2022-07-29T09:21:12;4.73;;;1.83;;
22480;SDS011;11407;56.964;-2.212;2022-07-29T09:24:07;3.10;;;1.80;;
22480;SDS011;11407;56.964;-2.212;2022-07-29T09:26:36;7.13;;;2.10;;
22480;SDS011;11407;56.964;-2.212;2022-07-29T09:29:09;3.27;;;2.03;;
22480;SDS011;11407;56.964;-2.212;2022-07-29T09:31:40;4.83;;;2.07;;
22480;SDS011;11407;56.964;-2.212;2022-07-29T09:34:07;3.30;;;1.73;;
22480;SDS011;11407;56.964;-2.212;2022-07-29T09:36:40;4.77;;;2.00;;
22480;SDS011;11407;56.964;-2.212;2022-07-29T09:39:07;6.00;;;1.80;;
22480;SDS011;11407;56.964;-2.212;2022-07-29T09:44:15;5.17;;;2.10;;
22480;SDS011;11407;56.964;-2.212;2022-07-29T09:47:00;4.30;;;1.80;;
22480;SDS011;11407;56.964;-2.212;2022-07-29T09:49:35;5.83;;;2.00;;
22480;SDS011;11407;56.964;-2.212;2022-07-29T09:52:14;5.80;;;2.10;;
22480;SDS011;11407;56.964;-2.212;2022-07-29T09:54:40;4.03;;;1.80;;
22480;SDS011;11407;56.964;-2.212;2022-07-29T09:57:06;3.47;;;1.97;;
22480;SDS011;11407;56.964;-2.212;2022-07-29T09:59:37;5.10;;;2.10;;
22480;SDS011;11407;56.964;-2.212;2022-07-29T10:02:11;4.43;;;1.90;;
22480;SDS011;11407;56.964;-2.212;2022-07-29T10:04:38;3.93;;;1.93;;
22480;SDS011;11407;56.964;-2.212;2022-07-29T10:07:07;3.87;;;1.60;;
22480;SDS011;11407;56.964;-2.212;2022-07-29T10:09:34;2.87;;;2.07;;
22480;SDS011;11407;56.964;-2.212;2022-07-29T10:12:10;5.03;;;2.07;;
22480;SDS011;11407;56.964;-2.212;2022-07-29T10:14:39;4.30;;;2.33;;
22480;SDS011;11407;56.964;-2.212;2022-07-29T10:17:06;6.13;;;2.17;;
22480;SDS011;11407;56.964;-2.212;2022-07-29T10:19:32;6.10;;;1.93;;
22480;SDS011;11407;56.964;-2.212;2022-07-29T10:21:59;7.60;;;2.03;;
22480;SDS011;11407;56.964;-2.212;2022-07-29T10:24:27;3.07;;;1.93;;
22480;SDS011;11407;56.964;-2.212;2022-07-29T10:26:58;3.80;;;1.97;;
22480;SDS011;11407;56.964;-2.212;2022-07-29T10:29:25;3.87;;;2.13;;
22480;SDS011;11407;56.964;-2.212;2022-07-29T10:32:06;3.03;;;1.97;;
22480;SDS011;11407;56.964;-2.212;2022-07-29T10:34:43;4.30;;;2.40;;
22480;SDS011;11407;56.964;-2.212;2022-07-29T10:37:22;5.50;;;2.20;;
22480;SDS011;11407;56.964;-2.212;2022-07-29T10:43:15;3.47;;;2.20;;
22480;SDS011;11407;56.964;-2.212;2022-07-29T10:45:48;6.10;;;2.10;;
22480;SDS011;11407;56.964;-2.212;2022-07-29T10:48:20;5.63;;;2.03;;
22480;SDS011;11407;56.964;-2.212;2022-07-29T10:50:56;4.63;;;2.50;;
22480;SDS011;11407;56.964;-2.212;2022-07-29T10:53:25;4.83;;;2.10;;
22480;SDS011;11407;56.964;-2.212;2022-07-29T11:01:46;4.37;;;2.30;;
22480;SDS011;11407;56.964;-2.212;2022-07-29T11:04:13;5.47;;;2.60;;
22480;SDS011;11407;56.964;-2.212;2022-07-29T11:09:27;3.37;;;2.20;;
22480;SDS011;11407;56.964;-2.212;2022-07-29T11:11:54;6.33;;;2.27;;
22480;SDS011;11407;56.964;-2.212;2022-07-29T11:17:20;5.17;;;2.50;;
22480;SDS011;11407;56.964;-2.212;2022-07-29T11:19:46;4.63;;;2.50;;
22480;SDS011;11407;56.964;-2.212;2022-07-29T11:22:12;7.93;;;2.83;;
22480;SDS011;11407;56.964;-2.212;2022-07-29T11:27:52;4.07;;;2.50;;
22480;SDS011;11407;56.964;-2.212;2022-07-29T11:33:30;5.27;;;2.27;;
22480;SDS011;11407;56.964;-2.212;2022-07-29T11:36:10;5.43;;;2.60;;
22480;SDS011;11407;56.964;-2.212;2022-07-29T11:38:36;4.60;;;2.70;;
22480;SDS011;11407;56.964;-2.212;2022-07-29T11:46:39;6.20;;;2.57;;
22480;SDS011;11407;56.964;-2.212;2022-07-29T11:49:11;6.50;;;3.00;;
22480;SDS011;11407;56.964;-2.212;2022-07-29T11:51:37;6.80;;;2.63;;
22480;SDS011;11407;56.964;-2.212;2022-07-29T11:54:03;4.87;;;2.70;;
22480;SDS011;11407;56.964;-2.212;2022-07-29T11:56:30;5.80;;;2.53;;
22480;SDS011;11407;56.964;-2.212;2022-07-29T11:59:06;4.97;;;2.77;;
22480;SDS011;11407;56.964;-2.212;2022-07-29T12:01:34;5.90;;;2.60;;
22480;SDS011;11407;56.964;-2.212;2022-07-29T12:04:06;12.53;;;2.90;;
22480;SDS011;11407;56.964;-2.212;2022-07-29T12:06:35;4.60;;;2.60;;
22480;SDS011;11407;56.964;-2.212;2022-07-29T12:09:06;6.30;;;2.70;;
22480;SDS011;11407;56.964;-2.212;2022-07-29T12:11:32;5.73;;;2.73;;
22480;SDS011;11407;56.964;-2.212;2022-07-29T12:13:57;5.33;;;2.70;;
22480;SDS011;11407;56.964;-2.212;2022-07-29T12:16:23;3.17;;;2.40;;
22480;SDS011;11407;56.964;-2.212;2022-07-29T12:19:00;5.30;;;2.57;;
22480;SDS011;11407;56.964;-2.212;2022-07-29T12:21:28;6.60;;;3.20;;
22480;SDS011;11407;56.964;-2.212;2022-07-29T12:23:54;7.50;;;3.07;;
22480;SDS011;11407;56.964;-2.212;2022-07-29T12:26:21;7.53;;;3.00;;
22480;SDS011;11407;56.964;-2.212;2022-07-29T12:28:46;6.23;;;2.90;;
22480;SDS011;11407;56.964;-2.212;2022-07-29T12:31:13;5.07;;;2.90;;
22480;SDS011;11407;56.964;-2.212;2022-07-29T12:33:39;6.27;;;4.07;;
22480;SDS011;11407;56.964;-2.212;2022-07-29T12:36:06;8.20;;;3.40;;
22480;SDS011;11407;56.964;-2.212;2022-07-29T12:38:33;5.37;;;3.53;;
22480;SDS011;11407;56.964;-2.212;2022-07-29T12:40:59;5.63;;;3.40;;
22480;SDS011;11407;56.964;-2.212;2022-07-29T12:43:25;6.77;;;3.33;;
22480;SDS011;11407;56.964;-2.212;2022-07-29T12:45:52;11.30;;;3.53;;
22480;SDS011;11407;56.964;-2.212;2022-07-29T12:48:35;5.07;;;3.20;;
22480;SDS011;11407;56.964;-2.212;2022-07-29T12:51:03;7.27;;;3.63;;
22480;SDS011;11407;56.964;-2.212;2022-07-29T12:53:30;6.80;;;3.60;;
22480;SDS011;11407;56.964;-2.212;2022-07-29T12:55:56;6.20;;;4.13;;
22480;SDS011;11407;56.964;-2.212;2022-07-29T13:03:49;5.53;;;3.50;;
22480;SDS011;11407;56.964;-2.212;2022-07-29T13:06:39;5.60;;;3.83;;
22480;SDS011;11407;56.964;-2.212;2022-07-29T13:11:40;7.60;;;3.60;;
22480;SDS011;11407;56.964;-2.212;2022-07-29T13:14:08;9.50;;;3.70;;
22480;SDS011;11407;56.964;-2.212;2022-07-29T13:16:34;8.47;;;3.97;;
22480;SDS011;11407;56.964;-2.212;2022-07-29T13:19:04;15.73;;;3.73;;
22480;SDS011;11407;56.964;-2.212;2022-07-29T13:21:34;5.53;;;3.50;;
22480;SDS011;11407;56.964;-2.212;2022-07-29T13:24:00;5.93;;;3.83;;
22480;SDS011;11407;56.964;-2.212;2022-07-29T13:26:26;5.03;;;3.30;;
22480;SDS011;11407;56.964;-2.212;2022-07-29T13:28:52;7.77;;;3.40;;
22480;SDS011;11407;56.964;-2.212;2022-07-29T13:31:18;8.53;;;3.70;;
22480;SDS011;11407;56.964;-2.212;2022-07-29T13:33:44;10.80;;;3.53;;
22480;SDS011;11407;56.964;-2.212;2022-07-29T13:36:09;9.87;;;3.73;;
22480;SDS011;11407;56.964;-2.212;2022-07-29T13:38:35;5.07;;;3.30;;
22480;SDS011;11407;56.964;-2.212;2022-07-29T13:41:00;6.70;;;3.20;;
22480;SDS011;11407;56.964;-2.212;2022-07-29T13:43:26;4.97;;;3.47;;
22480;SDS011;11407;56.964;-2.212;2022-07-29T13:45:51;6.77;;;3.40;;
22480;SDS011;11407;56.964;-2.212;2022-07-29T13:48:17;8.17;;;3.37;;
22480;SDS011;11407;56.964;-2.212;2022-07-29T13:50:42;6.47;;;3.30;;
22480;SDS011;11407;56.964;-2.212;2022-07-29T13:53:08;5.47;;;3.40;;
22480;SDS011;11407;56.964;-2.212;2022-07-29T13:55:33;7.17;;;3.23;;
22480;SDS011;11407;56.964;-2.212;2022-07-29T13:57:59;5.47;;;2.77;;
22480;SDS011;11407;56.964;-2.212;2022-07-29T14:00:25;11.60;;;3.53;;
22480;SDS011;11407;56.964;-2.212;2022-07-29T14:02:51;6.53;;;3.03;;
22480;SDS011;11407;56.964;-2.212;2022-07-29T14:05:17;5.27;;;2.90;;
22480;SDS011;11407;56.964;-2.212;2022-07-29T14:07:42;6.23;;;3.30;;
22480;SDS011;11407;56.964;-2.212;2022-07-29T14:10:08;7.80;;;3.53;;
22480;SDS011;11407;56.964;-2.212;2022-07-29T14:12:34;7.70;;;3.20;;
22480;SDS011;11407;56.964;-2.212;2022-07-29T14:14:59;9.43;;;3.73;;
22480;SDS011;11407;56.964;-2.212;2022-07-29T14:17:24;6.23;;;3.27;;
22480;SDS011;11407;56.964;-2.212;2022-07-29T14:19:50;7.53;;;3.40;;
22480;SDS011;11407;56.964;-2.212;2022-07-29T14:22:15;9.40;;;3.90;;
22480;SDS011;11407;56.964;-2.212;2022-07-29T14:24:43;5.03;;;3.10;;
22480;SDS011;11407;56.964;-2.212;2022-07-29T14:27:09;7.03;;;3.43;;
22480;SDS011;11407;56.964;-2.212;2022-07-29T14:29:35;10.33;;;4.03;;
22480;SDS011;11407;56.964;-2.212;2022-07-29T14:32:01;6.17;;;3.37;;
22480;SDS011;11407;56.964;-2.212;2022-07-29T14:34:27;7.70;;;3.33;;
22480;SDS011;11407;56.964;-2.212;2022-07-29T14:36:52;6.33;;;3.27;;
22480;SDS011;11407;56.964;-2.212;2022-07-29T14:39:21;5.83;;;3.77;;
22480;SDS011;11407;56.964;-2.212;2022-07-29T14:41:48;7.17;;;3.43;;
22480;SDS011;11407;56.964;-2.212;2022-07-29T14:44:13;6.13;;;3.83;;
22480;SDS011;11407;56.964;-2.212;2022-07-29T14:46:39;8.90;;;3.60;;
22480;SDS011;11407;56.964;-2.212;2022-07-29T14:49:04;7.73;;;3.57;;
22480;SDS011;11407;56.964;-2.212;2022-07-29T14:51:30;8.87;;;3.50;;
22480;SDS011;11407;56.964;-2.212;2022-07-29T14:53:56;7.60;;;3.10;;
22480;SDS011;11407;56.964;-2.212;2022-07-29T14:56:22;4.90;;;2.93;;
22480;SDS011;11407;56.964;-2.212;2022-07-29T14:58:48;6.57;;;3.00;;
22480;SDS011;11407;56.964;-2.212;2022-07-29T15:01:14;5.20;;;2.93;;
22480;SDS011;11407;56.964;-2.212;2022-07-29T15:03:39;6.87;;;3.00;;
22480;SDS011;11407;56.964;-2.212;2022-07-29T15:06:05;5.57;;;2.90;;
22480;SDS011;11407;56.964;-2.212;2022-07-29T15:08:30;10.10;;;3.13;;
22480;SDS011;11407;56.964;-2.212;2022-07-29T15:10:56;7.03;;;2.80;;
22480;SDS011;11407;56.964;-2.212;2022-07-29T15:13:24;5.57;;;3.10;;
22480;SDS011;11407;56.964;-2.212;2022-07-29T15:15:50;9.40;;;3.27;;
22480;SDS011;11407;56.964;-2.212;2022-07-29T15:18:16;7.43;;;2.80;;
22480;SDS011;11407;56.964;-2.212;2022-07-29T15:20:42;8.47;;;2.70;;
22480;SDS011;11407;56.964;-2.212;2022-07-29T15:23:07;7.20;;;2.73;;
22480;SDS011;11407;56.964;-2.212;2022-07-29T15:25:34;6.23;;;3.30;;
22480;SDS011;11407;56.964;-2.212;2022-07-29T15:28:01;7.33;;;2.50;;
22480;SDS011;11407;56.964;-2.212;2022-07-29T15:30:29;8.37;;;2.77;;